sensor_id;sensor_type;location;lat;lon;timestamp;P1;durP1;ratioP1;P2;durP2;ratioP2
47009;SDS011;59230;54.164;-3.124;2022-08-23T00:01:29;29.90;;;15.40;;
47009;SDS011;59230;54.164;-3.124;2022-08-23T00:03:56;27.95;;;14.52;;
47009;SDS011;59230;54.164;-3.124;2022-08-23T00:06:25;29.65;;;14.27;;
47009;SDS011;59230;54.164;-3.124;2022-08-23T00:08:51;38.17;;;16.85;;
47009;SDS011;59230;54.164;-3.124;2022-08-23T00:11:32;42.50;;;18.63;;
47009;SDS011;59230;54.164;-3.124;2022-08-23T00:14:09;40.25;;;18.17;;
47009;SDS011;59230;54.164;-3.124;2022-08-23T00:16:40;32.75;;;16.23;;
47009;SDS011;59230;54.164;-3.124;2022-08-23T00:19:06;36.17;;;16.10;;
47009;SDS011;59230;54.164;-3.124;2022-08-23T00:21:34;46.85;;;18.85;;
47009;SDS011;59230;54.164;-3.124;2022-08-23T00:24:01;35.80;;;16.92;;
47009;SDS011;59230;54.164;-3.124;2022-08-23T00:26:46;44.17;;;18.17;;
47009;SDS011;59230;54.164;-3.124;2022-08-23T00:32:07;41.72;;;17.77;;
47009;SDS011;59230;54.164;-3.124;2022-08-23T00:34:35;38.92;;;17.45;;
47009;SDS011;59230;54.164;-3.124;2022-08-23T00:37:01;38.13;;;17.92;;
47009;SDS011;59230;54.164;-3.124;2022-08-23T00:39:28;38.38;;;17.13;;
47009;SDS011;59230;54.164;-3.124;2022-08-23T00:41:58;41.15;;;18.85;;
47009;SDS011;59230;54.164;-3.124;2022-08-23T00:44:27;37.05;;;18.02;;
47009;SDS011;59230;54.164;-3.124;2022-08-23T00:47:13;41.50;;;18.05;;
47009;SDS011;59230;54.164;-3.124;2022-08-23T00:50:11;37.35;;;16.70;;
47009;SDS011;59230;54.164;-3.124;2022-08-23T00:53:02;45.25;;;18.48;;
47009;SDS011;59230;54.164;-3.124;2022-08-23T00:55:35;40.08;;;16.58;;
47009;SDS011;59230;54.164;-3.124;2022-08-23T00:58:01;38.13;;;17.75;;
47009;SDS011;59230;54.164;-3.124;2022-08-23T01:00:27;37.58;;;18.02;;
47009;SDS011;59230;54.164;-3.124;2022-08-23T01:02:53;36.33;;;17.40;;
47009;SDS011;59230;54.164;-3.124;2022-08-23T01:05:20;43.85;;;18.25;;
47009;SDS011;59230;54.164;-3.124;2022-08-23T01:07:52;38.07;;;17.13;;
47009;SDS011;59230;54.164;-3.124;2022-08-23T01:12:54;38.45;;;18.17;;
47009;SDS011;59230;54.164;-3.124;2022-08-23T01:15:42;46.15;;;18.73;;
47009;SDS011;59230;54.164;-3.124;2022-08-23T01:18:12;32.30;;;17.40;;
47009;SDS011;59230;54.164;-3.124;2022-08-23T01:21:00;39.33;;;18.83;;
47009;SDS011;59230;54.164;-3.124;2022-08-23T01:26:20;38.40;;;17.55;;
47009;SDS011;59230;54.164;-3.124;2022-08-23T01:28:47;44.20;;;17.58;;
47009;SDS011;59230;54.164;-3.124;2022-08-23T01:31:13;34.83;;;17.65;;
47009;SDS011;59230;54.164;-3.124;2022-08-23T01:33:39;42.03;;;17.08;;
47009;SDS011;59230;54.164;-3.124;2022-08-23T01:36:07;30.67;;;16.08;;
47009;SDS011;59230;54.164;-3.124;2022-08-23T01:38:36;31.90;;;16.70;;
47009;SDS011;59230;54.164;-3.124;2022-08-23T01:41:02;30.48;;;15.65;;
47009;SDS011;59230;54.164;-3.124;2022-08-23T01:43:28;37.35;;;17.85;;
47009;SDS011;59230;54.164;-3.124;2022-08-23T01:45:54;43.10;;;17.50;;
47009;SDS011;59230;54.164;-3.124;2022-08-23T01:48:19;23.70;;;14.65;;
47009;SDS011;59230;54.164;-3.124;2022-08-23T01:50:45;39.53;;;17.75;;
47009;SDS011;59230;54.164;-3.124;2022-08-23T01:53:11;34.88;;;17.35;;
47009;SDS011;59230;54.164;-3.124;2022-08-23T01:55:38;39.60;;;18.17;;
47009;SDS011;59230;54.164;-3.124;2022-08-23T01:58:04;38.95;;;17.73;;
47009;SDS011;59230;54.164;-3.124;2022-08-23T02:00:31;43.25;;;19.00;;
47009;SDS011;59230;54.164;-3.124;2022-08-23T02:03:02;45.65;;;19.95;;
47009;SDS011;59230;54.164;-3.124;2022-08-23T02:05:29;69.72;;;21.92;;
47009;SDS011;59230;54.164;-3.124;2022-08-23T02:07:54;48.50;;;20.45;;
47009;SDS011;59230;54.164;-3.124;2022-08-23T02:10:20;52.22;;;21.30;;
47009;SDS011;59230;54.164;-3.124;2022-08-23T02:12:47;66.07;;;23.92;;
47009;SDS011;59230;54.164;-3.124;2022-08-23T02:15:14;64.13;;;23.75;;
47009;SDS011;59230;54.164;-3.124;2022-08-23T02:17:40;61.00;;;21.70;;
47009;SDS011;59230;54.164;-3.124;2022-08-23T02:20:06;79.32;;;26.58;;
47009;SDS011;59230;54.164;-3.124;2022-08-23T02:22:32;64.25;;;25.27;;
47009;SDS011;59230;54.164;-3.124;2022-08-23T02:24:58;86.78;;;28.23;;
47009;SDS011;59230;54.164;-3.124;2022-08-23T02:27:24;52.78;;;24.98;;
47009;SDS011;59230;54.164;-3.124;2022-08-23T02:29:49;90.28;;;31.50;;
47009;SDS011;59230;54.164;-3.124;2022-08-23T02:32:15;80.45;;;29.17;;
47009;SDS011;59230;54.164;-3.124;2022-08-23T02:34:42;76.13;;;27.75;;
47009;SDS011;59230;54.164;-3.124;2022-08-23T02:37:09;61.22;;;25.70;;
47009;SDS011;59230;54.164;-3.124;2022-08-23T02:39:35;63.67;;;27.48;;
47009;SDS011;59230;54.164;-3.124;2022-08-23T02:42:01;83.88;;;28.95;;
47009;SDS011;59230;54.164;-3.124;2022-08-23T02:44:27;71.93;;;28.10;;
47009;SDS011;59230;54.164;-3.124;2022-08-23T02:46:54;79.60;;;27.23;;
47009;SDS011;59230;54.164;-3.124;2022-08-23T02:49:19;69.60;;;26.83;;
47009;SDS011;59230;54.164;-3.124;2022-08-23T02:51:45;66.03;;;26.35;;
47009;SDS011;59230;54.164;-3.124;2022-08-23T02:54:11;81.35;;;28.95;;
47009;SDS011;59230;54.164;-3.124;2022-08-23T02:56:36;71.00;;;27.50;;
47009;SDS011;59230;54.164;-3.124;2022-08-23T02:59:03;93.10;;;28.35;;
47009;SDS011;59230;54.164;-3.124;2022-08-23T03:01:31;80.22;;;30.17;;
47009;SDS011;59230;54.164;-3.124;2022-08-23T03:03:58;83.53;;;30.25;;
47009;SDS011;59230;54.164;-3.124;2022-08-23T03:06:24;96.60;;;33.17;;
47009;SDS011;59230;54.164;-3.124;2022-08-23T03:08:51;74.03;;;28.65;;
47009;SDS011;59230;54.164;-3.124;2022-08-23T03:11:17;88.13;;;32.20;;
47009;SDS011;59230;54.164;-3.124;2022-08-23T03:13:45;100.78;;;33.50;;
47009;SDS011;59230;54.164;-3.124;2022-08-23T03:16:11;82.45;;;30.63;;
47009;SDS011;59230;54.164;-3.124;2022-08-23T03:18:37;94.00;;;31.45;;
47009;SDS011;59230;54.164;-3.124;2022-08-23T03:21:04;58.97;;;27.88;;
47009;SDS011;59230;54.164;-3.124;2022-08-23T03:23:30;67.93;;;29.35;;
47009;SDS011;59230;54.164;-3.124;2022-08-23T03:25:57;68.05;;;28.70;;
47009;SDS011;59230;54.164;-3.124;2022-08-23T03:28:23;64.88;;;28.20;;
47009;SDS011;59230;54.164;-3.124;2022-08-23T03:30:49;73.28;;;29.83;;
47009;SDS011;59230;54.164;-3.124;2022-08-23T03:33:15;49.50;;;25.45;;
47009;SDS011;59230;54.164;-3.124;2022-08-23T03:35:41;72.38;;;28.95;;
47009;SDS011;59230;54.164;-3.124;2022-08-23T03:38:06;73.70;;;29.13;;
47009;SDS011;59230;54.164;-3.124;2022-08-23T03:40:32;63.65;;;28.17;;
47009;SDS011;59230;54.164;-3.124;2022-08-23T03:42:58;47.97;;;25.70;;
47009;SDS011;59230;54.164;-3.124;2022-08-23T03:45:25;56.15;;;26.00;;
47009;SDS011;59230;54.164;-3.124;2022-08-23T03:47:51;53.95;;;24.40;;
47009;SDS011;59230;54.164;-3.124;2022-08-23T03:50:17;58.47;;;25.38;;
47009;SDS011;59230;54.164;-3.124;2022-08-23T03:55:33;61.40;;;25.25;;
47009;SDS011;59230;54.164;-3.124;2022-08-23T03:57:58;66.10;;;26.83;;
47009;SDS011;59230;54.164;-3.124;2022-08-23T04:00:24;82.80;;;28.45;;
47009;SDS011;59230;54.164;-3.124;2022-08-23T04:02:49;74.15;;;28.63;;
47009;SDS011;59230;54.164;-3.124;2022-08-23T04:05:15;89.47;;;31.13;;
47009;SDS011;59230;54.164;-3.124;2022-08-23T04:07:40;74.70;;;27.33;;
47009;SDS011;59230;54.164;-3.124;2022-08-23T04:10:06;80.78;;;30.10;;
47009;SDS011;59230;54.164;-3.124;2022-08-23T04:12:33;71.43;;;28.83;;
47009;SDS011;59230;54.164;-3.124;2022-08-23T04:14:59;87.60;;;29.75;;
47009;SDS011;59230;54.164;-3.124;2022-08-23T04:17:24;81.93;;;30.70;;
47009;SDS011;59230;54.164;-3.124;2022-08-23T04:19:50;95.97;;;32.88;;
47009;SDS011;59230;54.164;-3.124;2022-08-23T04:22:16;90.07;;;31.17;;
47009;SDS011;59230;54.164;-3.124;2022-08-23T04:24:43;75.78;;;29.75;;
47009;SDS011;59230;54.164;-3.124;2022-08-23T04:27:09;77.22;;;29.92;;
47009;SDS011;59230;54.164;-3.124;2022-08-23T04:29:34;46.30;;;24.80;;
47009;SDS011;59230;54.164;-3.124;2022-08-23T04:32:00;49.75;;;25.65;;
47009;SDS011;59230;54.164;-3.124;2022-08-23T04:34:27;70.70;;;28.17;;
47009;SDS011;59230;54.164;-3.124;2022-08-23T04:36:53;56.75;;;26.98;;
47009;SDS011;59230;54.164;-3.124;2022-08-23T04:39:18;50.35;;;25.42;;
47009;SDS011;59230;54.164;-3.124;2022-08-23T04:41:44;61.03;;;26.58;;
47009;SDS011;59230;54.164;-3.124;2022-08-23T04:44:28;82.95;;;29.02;;
47009;SDS011;59230;54.164;-3.124;2022-08-23T04:46:53;53.47;;;26.48;;
47009;SDS011;59230;54.164;-3.124;2022-08-23T04:49:18;58.83;;;26.98;;
47009;SDS011;59230;54.164;-3.124;2022-08-23T04:51:45;61.50;;;26.58;;
47009;SDS011;59230;54.164;-3.124;2022-08-23T04:54:11;52.45;;;25.30;;
47009;SDS011;59230;54.164;-3.124;2022-08-23T04:56:37;59.42;;;26.67;;
47009;SDS011;59230;54.164;-3.124;2022-08-23T04:59:03;69.15;;;27.83;;
47009;SDS011;59230;54.164;-3.124;2022-08-23T05:01:29;59.72;;;25.15;;
47009;SDS011;59230;54.164;-3.124;2022-08-23T05:03:54;52.20;;;24.58;;
47009;SDS011;59230;54.164;-3.124;2022-08-23T05:06:21;75.75;;;27.88;;
47009;SDS011;59230;54.164;-3.124;2022-08-23T05:08:47;64.05;;;26.70;;
47009;SDS011;59230;54.164;-3.124;2022-08-23T05:11:13;63.13;;;27.98;;
47009;SDS011;59230;54.164;-3.124;2022-08-23T05:13:38;76.68;;;28.63;;
47009;SDS011;59230;54.164;-3.124;2022-08-23T05:16:04;60.42;;;27.70;;
47009;SDS011;59230;54.164;-3.124;2022-08-23T05:18:30;57.35;;;26.75;;
47009;SDS011;59230;54.164;-3.124;2022-08-23T05:20:56;63.03;;;27.40;;
47009;SDS011;59230;54.164;-3.124;2022-08-23T05:23:21;84.25;;;29.45;;
47009;SDS011;59230;54.164;-3.124;2022-08-23T05:25:47;66.18;;;27.35;;
47009;SDS011;59230;54.164;-3.124;2022-08-23T05:28:17;50.83;;;23.48;;
47009;SDS011;59230;54.164;-3.124;2022-08-23T05:33:24;83.22;;;28.98;;
47009;SDS011;59230;54.164;-3.124;2022-08-23T05:35:50;73.30;;;27.38;;
47009;SDS011;59230;54.164;-3.124;2022-08-23T05:38:16;70.80;;;27.92;;
47009;SDS011;59230;54.164;-3.124;2022-08-23T05:40:42;61.72;;;25.98;;
47009;SDS011;59230;54.164;-3.124;2022-08-23T05:43:07;48.70;;;22.48;;
47009;SDS011;59230;54.164;-3.124;2022-08-23T05:45:33;54.10;;;25.15;;
47009;SDS011;59230;54.164;-3.124;2022-08-23T05:47:58;64.07;;;26.35;;
47009;SDS011;59230;54.164;-3.124;2022-08-23T05:50:23;55.03;;;23.88;;
47009;SDS011;59230;54.164;-3.124;2022-08-23T05:52:49;44.17;;;22.42;;
47009;SDS011;59230;54.164;-3.124;2022-08-23T05:55:14;54.65;;;24.63;;
47009;SDS011;59230;54.164;-3.124;2022-08-23T05:57:40;59.05;;;25.45;;
47009;SDS011;59230;54.164;-3.124;2022-08-23T06:00:06;44.00;;;22.65;;
47009;SDS011;59230;54.164;-3.124;2022-08-23T06:02:36;70.03;;;27.52;;
47009;SDS011;59230;54.164;-3.124;2022-08-23T06:05:02;50.28;;;25.63;;
47009;SDS011;59230;54.164;-3.124;2022-08-23T06:07:27;49.38;;;24.23;;
47009;SDS011;59230;54.164;-3.124;2022-08-23T06:09:55;44.03;;;23.35;;
47009;SDS011;59230;54.164;-3.124;2022-08-23T06:12:20;47.80;;;23.65;;
47009;SDS011;59230;54.164;-3.124;2022-08-23T06:14:46;40.80;;;19.65;;
47009;SDS011;59230;54.164;-3.124;2022-08-23T06:17:11;46.65;;;23.17;;
47009;SDS011;59230;54.164;-3.124;2022-08-23T06:19:37;41.72;;;22.33;;
47009;SDS011;59230;54.164;-3.124;2022-08-23T06:22:02;51.90;;;23.33;;
47009;SDS011;59230;54.164;-3.124;2022-08-23T06:24:28;63.60;;;25.77;;
47009;SDS011;59230;54.164;-3.124;2022-08-23T06:26:54;48.75;;;24.17;;
47009;SDS011;59230;54.164;-3.124;2022-08-23T06:29:19;57.72;;;24.35;;
47009;SDS011;59230;54.164;-3.124;2022-08-23T06:31:46;85.75;;;27.15;;
47009;SDS011;59230;54.164;-3.124;2022-08-23T06:34:24;33.25;;;18.17;;
47009;SDS011;59230;54.164;-3.124;2022-08-23T06:36:56;45.50;;;22.20;;
47009;SDS011;59230;54.164;-3.124;2022-08-23T06:39:23;50.28;;;23.40;;
47009;SDS011;59230;54.164;-3.124;2022-08-23T06:41:50;48.38;;;23.25;;
47009;SDS011;59230;54.164;-3.124;2022-08-23T06:44:16;34.97;;;19.65;;
47009;SDS011;59230;54.164;-3.124;2022-08-23T06:46:43;87.45;;;27.83;;
47009;SDS011;59230;54.164;-3.124;2022-08-23T06:49:09;71.38;;;25.88;;
47009;SDS011;59230;54.164;-3.124;2022-08-23T06:51:39;45.40;;;22.25;;
47009;SDS011;59230;54.164;-3.124;2022-08-23T06:54:08;51.17;;;23.35;;
47009;SDS011;59230;54.164;-3.124;2022-08-23T06:56:37;51.50;;;22.48;;
47009;SDS011;59230;54.164;-3.124;2022-08-23T06:59:04;32.05;;;18.38;;
47009;SDS011;59230;54.164;-3.124;2022-08-23T07:04:06;33.88;;;18.90;;
47009;SDS011;59230;54.164;-3.124;2022-08-23T07:06:34;38.10;;;19.70;;
47009;SDS011;59230;54.164;-3.124;2022-08-23T07:09:00;33.50;;;19.17;;
47009;SDS011;59230;54.164;-3.124;2022-08-23T07:11:26;38.10;;;19.90;;
47009;SDS011;59230;54.164;-3.124;2022-08-23T07:13:56;31.13;;;18.75;;
47009;SDS011;59230;54.164;-3.124;2022-08-23T07:16:24;29.48;;;18.20;;
47009;SDS011;59230;54.164;-3.124;2022-08-23T07:18:50;28.27;;;17.08;;
47009;SDS011;59230;54.164;-3.124;2022-08-23T07:21:18;23.25;;;16.42;;
47009;SDS011;59230;54.164;-3.124;2022-08-23T07:23:44;36.35;;;17.60;;
47009;SDS011;59230;54.164;-3.124;2022-08-23T07:26:11;24.45;;;16.35;;
47009;SDS011;59230;54.164;-3.124;2022-08-23T07:28:38;24.80;;;16.63;;
47009;SDS011;59230;54.164;-3.124;2022-08-23T07:31:26;34.28;;;17.38;;
47009;SDS011;59230;54.164;-3.124;2022-08-23T07:33:52;26.60;;;15.63;;
47009;SDS011;59230;54.164;-3.124;2022-08-23T07:36:20;17.70;;;12.75;;
47009;SDS011;59230;54.164;-3.124;2022-08-23T07:38:47;22.02;;;13.95;;
47009;SDS011;59230;54.164;-3.124;2022-08-23T07:41:13;19.40;;;13.48;;
47009;SDS011;59230;54.164;-3.124;2022-08-23T07:43:39;20.30;;;12.75;;
47009;SDS011;59230;54.164;-3.124;2022-08-23T07:46:05;20.85;;;12.25;;
47009;SDS011;59230;54.164;-3.124;2022-08-23T07:48:32;20.85;;;12.70;;
47009;SDS011;59230;54.164;-3.124;2022-08-23T07:50:59;19.60;;;13.10;;
47009;SDS011;59230;54.164;-3.124;2022-08-23T07:53:26;17.27;;;11.90;;
47009;SDS011;59230;54.164;-3.124;2022-08-23T07:55:52;15.55;;;11.15;;
47009;SDS011;59230;54.164;-3.124;2022-08-23T07:58:19;19.33;;;10.60;;
47009;SDS011;59230;54.164;-3.124;2022-08-23T08:00:45;18.48;;;13.60;;
47009;SDS011;59230;54.164;-3.124;2022-08-23T08:03:11;18.13;;;13.65;;
47009;SDS011;59230;54.164;-3.124;2022-08-23T08:05:38;21.08;;;14.32;;
47009;SDS011;59230;54.164;-3.124;2022-08-23T08:08:04;21.50;;;14.55;;
47009;SDS011;59230;54.164;-3.124;2022-08-23T08:10:30;22.63;;;15.70;;
47009;SDS011;59230;54.164;-3.124;2022-08-23T08:12:56;31.63;;;17.45;;
47009;SDS011;59230;54.164;-3.124;2022-08-23T08:15:22;23.27;;;14.90;;
47009;SDS011;59230;54.164;-3.124;2022-08-23T08:17:50;21.00;;;13.57;;
47009;SDS011;59230;54.164;-3.124;2022-08-23T08:20:19;30.52;;;16.23;;
47009;SDS011;59230;54.164;-3.124;2022-08-23T08:22:46;23.73;;;15.35;;
47009;SDS011;59230;54.164;-3.124;2022-08-23T08:25:12;26.58;;;15.77;;
47009;SDS011;59230;54.164;-3.124;2022-08-23T08:27:37;29.52;;;16.05;;
47009;SDS011;59230;54.164;-3.124;2022-08-23T08:30:04;27.33;;;16.02;;
47009;SDS011;59230;54.164;-3.124;2022-08-23T08:32:30;24.73;;;16.48;;
47009;SDS011;59230;54.164;-3.124;2022-08-23T08:34:55;29.35;;;17.08;;
47009;SDS011;59230;54.164;-3.124;2022-08-23T08:37:21;28.23;;;15.23;;
47009;SDS011;59230;54.164;-3.124;2022-08-23T08:39:46;30.73;;;16.25;;
47009;SDS011;59230;54.164;-3.124;2022-08-23T08:45:14;37.15;;;18.70;;
47009;SDS011;59230;54.164;-3.124;2022-08-23T08:50:17;49.13;;;22.45;;
47009;SDS011;59230;54.164;-3.124;2022-08-23T08:52:56;59.33;;;22.17;;
47009;SDS011;59230;54.164;-3.124;2022-08-23T08:55:33;56.05;;;22.58;;
47009;SDS011;59230;54.164;-3.124;2022-08-23T08:58:03;65.38;;;24.15;;
47009;SDS011;59230;54.164;-3.124;2022-08-23T09:00:31;65.70;;;24.13;;
47009;SDS011;59230;54.164;-3.124;2022-08-23T09:03:08;49.08;;;21.40;;
47009;SDS011;59230;54.164;-3.124;2022-08-23T09:05:38;60.00;;;24.52;;
47009;SDS011;59230;54.164;-3.124;2022-08-23T09:11:34;54.78;;;23.40;;
47009;SDS011;59230;54.164;-3.124;2022-08-23T09:16:54;49.10;;;22.65;;
47009;SDS011;59230;54.164;-3.124;2022-08-23T09:19:22;49.72;;;23.58;;
47009;SDS011;59230;54.164;-3.124;2022-08-23T09:21:57;51.40;;;22.55;;
47009;SDS011;59230;54.164;-3.124;2022-08-23T09:24:26;46.53;;;21.98;;
47009;SDS011;59230;54.164;-3.124;2022-08-23T09:26:52;43.30;;;22.35;;
47009;SDS011;59230;54.164;-3.124;2022-08-23T09:29:31;37.42;;;21.20;;
47009;SDS011;59230;54.164;-3.124;2022-08-23T09:31:58;40.33;;;20.45;;
47009;SDS011;59230;54.164;-3.124;2022-08-23T09:37:17;45.05;;;20.13;;
47009;SDS011;59230;54.164;-3.124;2022-08-23T09:39:45;36.13;;;19.70;;
47009;SDS011;59230;54.164;-3.124;2022-08-23T09:42:33;39.63;;;20.85;;
47009;SDS011;59230;54.164;-3.124;2022-08-23T09:45:03;38.65;;;21.15;;
47009;SDS011;59230;54.164;-3.124;2022-08-23T09:47:33;39.83;;;21.55;;
47009;SDS011;59230;54.164;-3.124;2022-08-23T09:50:48;47.88;;;25.98;;
47009;SDS011;59230;54.164;-3.124;2022-08-23T09:53:03;35.70;;;21.98;;
47009;SDS011;59230;54.164;-3.124;2022-08-23T09:55:31;37.60;;;21.48;;
47009;SDS011;59230;54.164;-3.124;2022-08-23T09:57:59;45.50;;;23.08;;
47009;SDS011;59230;54.164;-3.124;2022-08-23T10:00:28;39.28;;;20.30;;
47009;SDS011;59230;54.164;-3.124;2022-08-23T10:03:43;41.17;;;20.70;;
47009;SDS011;59230;54.164;-3.124;2022-08-23T10:05:55;39.20;;;21.20;;
47009;SDS011;59230;54.164;-3.124;2022-08-23T10:08:23;37.20;;;18.63;;
47009;SDS011;59230;54.164;-3.124;2022-08-23T10:10:54;30.52;;;19.35;;
47009;SDS011;59230;54.164;-3.124;2022-08-23T10:13:22;26.95;;;17.45;;
47009;SDS011;59230;54.164;-3.124;2022-08-23T10:21:53;28.83;;;15.00;;
47009;SDS011;59230;54.164;-3.124;2022-08-23T10:27:01;21.77;;;11.95;;
47009;SDS011;59230;54.164;-3.124;2022-08-23T10:32:09;20.95;;;11.98;;
47009;SDS011;59230;54.164;-3.124;2022-08-23T10:34:41;20.98;;;11.02;;
47009;SDS011;59230;54.164;-3.124;2022-08-23T10:40:22;23.33;;;13.75;;
47009;SDS011;59230;54.164;-3.124;2022-08-23T10:45:39;13.63;;;7.43;;
47009;SDS011;59230;54.164;-3.124;2022-08-23T10:48:19;10.38;;;5.30;;
47009;SDS011;59230;54.164;-3.124;2022-08-23T10:50:58;9.35;;;5.20;;
47009;SDS011;59230;54.164;-3.124;2022-08-23T10:53:36;8.55;;;5.40;;
47009;SDS011;59230;54.164;-3.124;2022-08-23T10:56:11;10.00;;;5.53;;
47009;SDS011;59230;54.164;-3.124;2022-08-23T11:01:08;8.23;;;5.57;;
47009;SDS011;59230;54.164;-3.124;2022-08-23T11:03:42;8.90;;;4.30;;
47009;SDS011;59230;54.164;-3.124;2022-08-23T11:09:07;6.03;;;3.40;;
47009;SDS011;59230;54.164;-3.124;2022-08-23T11:11:39;7.15;;;3.70;;
47009;SDS011;59230;54.164;-3.124;2022-08-23T11:14:07;6.57;;;4.40;;
47009;SDS011;59230;54.164;-3.124;2022-08-23T11:16:35;7.38;;;4.00;;
47009;SDS011;59230;54.164;-3.124;2022-08-23T11:19:05;7.55;;;4.90;;
47009;SDS011;59230;54.164;-3.124;2022-08-23T11:31:33;8.48;;;2.97;;
47009;SDS011;59230;54.164;-3.124;2022-08-23T11:34:04;7.15;;;2.65;;
47009;SDS011;59230;54.164;-3.124;2022-08-23T11:36:36;4.97;;;2.30;;
47009;SDS011;59230;54.164;-3.124;2022-08-23T11:39:07;8.55;;;2.85;;
47009;SDS011;59230;54.164;-3.124;2022-08-23T11:44:21;5.80;;;2.47;;
47009;SDS011;59230;54.164;-3.124;2022-08-23T12:18:33;7.32;;;2.78;;
47009;SDS011;59230;54.164;-3.124;2022-08-23T12:21:15;8.38;;;2.50;;
47009;SDS011;59230;54.164;-3.124;2022-08-23T12:23:44;6.90;;;2.47;;
47009;SDS011;59230;54.164;-3.124;2022-08-23T12:26:13;7.75;;;2.53;;
47009;SDS011;59230;54.164;-3.124;2022-08-23T12:28:51;11.95;;;2.05;;
47009;SDS011;59230;54.164;-3.124;2022-08-23T12:31:27;6.03;;;2.03;;
47009;SDS011;59230;54.164;-3.124;2022-08-23T12:34:17;3.75;;;2.10;;
47009;SDS011;59230;54.164;-3.124;2022-08-23T12:37:07;3.47;;;1.92;;
47009;SDS011;59230;54.164;-3.124;2022-08-23T12:39:57;5.38;;;2.05;;
47009;SDS011;59230;54.164;-3.124;2022-08-23T12:45:05;4.07;;;2.00;;
47009;SDS011;59230;54.164;-3.124;2022-08-23T12:47:38;5.72;;;2.00;;
47009;SDS011;59230;54.164;-3.124;2022-08-23T12:52:38;5.20;;;2.15;;
47009;SDS011;59230;54.164;-3.124;2022-08-23T12:55:16;3.72;;;2.00;;
47009;SDS011;59230;54.164;-3.124;2022-08-23T12:57:44;7.20;;;3.00;;
47009;SDS011;59230;54.164;-3.124;2022-08-23T13:00:23;7.03;;;2.88;;
47009;SDS011;59230;54.164;-3.124;2022-08-23T13:03:01;10.02;;;3.80;;
47009;SDS011;59230;54.164;-3.124;2022-08-23T13:05:31;10.07;;;4.35;;
47009;SDS011;59230;54.164;-3.124;2022-08-23T13:08:00;9.27;;;3.38;;
47009;SDS011;59230;54.164;-3.124;2022-08-23T13:10:28;7.18;;;3.60;;
47009;SDS011;59230;54.164;-3.124;2022-08-23T13:12:54;9.52;;;3.92;;
47009;SDS011;59230;54.164;-3.124;2022-08-23T13:18:27;7.70;;;3.22;;
47009;SDS011;59230;54.164;-3.124;2022-08-23T13:23:42;5.68;;;2.80;;
47009;SDS011;59230;54.164;-3.124;2022-08-23T13:29:07;7.43;;;2.92;;
47009;SDS011;59230;54.164;-3.124;2022-08-23T13:37:28;7.10;;;2.33;;
47009;SDS011;59230;54.164;-3.124;2022-08-23T13:39:58;7.50;;;2.00;;
47009;SDS011;59230;54.164;-3.124;2022-08-23T13:42:41;4.60;;;1.33;;
47009;SDS011;59230;54.164;-3.124;2022-08-23T13:45:18;4.72;;;1.50;;
47009;SDS011;59230;54.164;-3.124;2022-08-23T13:47:56;4.03;;;1.20;;
47009;SDS011;59230;54.164;-3.124;2022-08-23T13:50:29;1.73;;;0.95;;
47009;SDS011;59230;54.164;-3.124;2022-08-23T13:52:55;2.35;;;0.80;;
47009;SDS011;59230;54.164;-3.124;2022-08-23T13:55:21;2.50;;;0.75;;
47009;SDS011;59230;54.164;-3.124;2022-08-23T13:57:47;5.63;;;0.82;;
47009;SDS011;59230;54.164;-3.124;2022-08-23T14:00:13;3.17;;;0.70;;
47009;SDS011;59230;54.164;-3.124;2022-08-23T14:02:39;1.90;;;0.80;;
47009;SDS011;59230;54.164;-3.124;2022-08-23T14:05:05;1.65;;;0.80;;
47009;SDS011;59230;54.164;-3.124;2022-08-23T14:07:32;2.13;;;0.80;;
47009;SDS011;59230;54.164;-3.124;2022-08-23T14:09:58;3.65;;;0.88;;
47009;SDS011;59230;54.164;-3.124;2022-08-23T14:12:27;1.05;;;0.70;;
47009;SDS011;59230;54.164;-3.124;2022-08-23T14:14:57;2.05;;;1.20;;
47009;SDS011;59230;54.164;-3.124;2022-08-23T14:17:23;4.50;;;1.23;;
47009;SDS011;59230;54.164;-3.124;2022-08-23T14:19:49;4.47;;;1.10;;
47009;SDS011;59230;54.164;-3.124;2022-08-23T14:22:17;2.88;;;1.27;;
47009;SDS011;59230;54.164;-3.124;2022-08-23T14:24:43;5.63;;;1.63;;
47009;SDS011;59230;54.164;-3.124;2022-08-23T14:27:09;4.75;;;1.65;;
47009;SDS011;59230;54.164;-3.124;2022-08-23T14:29:35;7.93;;;1.40;;
47009;SDS011;59230;54.164;-3.124;2022-08-23T14:32:01;5.15;;;1.80;;
47009;SDS011;59230;54.164;-3.124;2022-08-23T14:34:27;6.75;;;2.03;;
47009;SDS011;59230;54.164;-3.124;2022-08-23T14:36:54;4.43;;;2.03;;
47009;SDS011;59230;54.164;-3.124;2022-08-23T14:39:21;5.80;;;2.42;;
47009;SDS011;59230;54.164;-3.124;2022-08-23T14:41:46;8.02;;;3.25;;
47009;SDS011;59230;54.164;-3.124;2022-08-23T14:44:12;8.77;;;2.95;;
47009;SDS011;59230;54.164;-3.124;2022-08-23T14:46:40;6.68;;;2.60;;
47009;SDS011;59230;54.164;-3.124;2022-08-23T14:49:06;6.38;;;2.63;;
47009;SDS011;59230;54.164;-3.124;2022-08-23T14:51:33;8.52;;;2.65;;
47009;SDS011;59230;54.164;-3.124;2022-08-23T14:54:01;5.63;;;2.63;;
47009;SDS011;59230;54.164;-3.124;2022-08-23T14:56:29;7.10;;;2.60;;
47009;SDS011;59230;54.164;-3.124;2022-08-23T14:58:55;5.03;;;1.80;;
47009;SDS011;59230;54.164;-3.124;2022-08-23T15:01:21;7.43;;;3.13;;
47009;SDS011;59230;54.164;-3.124;2022-08-23T15:03:47;4.10;;;1.77;;
47009;SDS011;59230;54.164;-3.124;2022-08-23T15:06:13;5.05;;;1.40;;
47009;SDS011;59230;54.164;-3.124;2022-08-23T15:08:40;3.25;;;1.25;;
47009;SDS011;59230;54.164;-3.124;2022-08-23T15:11:07;4.13;;;1.50;;
47009;SDS011;59230;54.164;-3.124;2022-08-23T15:13:33;3.55;;;1.95;;
47009;SDS011;59230;54.164;-3.124;2022-08-23T15:16:00;5.13;;;1.80;;
47009;SDS011;59230;54.164;-3.124;2022-08-23T15:18:26;3.90;;;1.85;;
47009;SDS011;59230;54.164;-3.124;2022-08-23T15:20:51;6.00;;;1.77;;
47009;SDS011;59230;54.164;-3.124;2022-08-23T15:23:17;2.83;;;1.73;;
47009;SDS011;59230;54.164;-3.124;2022-08-23T15:25:43;3.88;;;1.30;;
47009;SDS011;59230;54.164;-3.124;2022-08-23T15:28:11;4.63;;;1.80;;
47009;SDS011;59230;54.164;-3.124;2022-08-23T15:30:37;3.42;;;1.27;;
47009;SDS011;59230;54.164;-3.124;2022-08-23T15:33:02;5.82;;;1.65;;
47009;SDS011;59230;54.164;-3.124;2022-08-23T15:35:28;6.57;;;1.80;;
47009;SDS011;59230;54.164;-3.124;2022-08-23T15:37:54;3.55;;;1.60;;
47009;SDS011;59230;54.164;-3.124;2022-08-23T15:40:21;4.65;;;1.67;;
47009;SDS011;59230;54.164;-3.124;2022-08-23T15:42:47;4.20;;;1.45;;
47009;SDS011;59230;54.164;-3.124;2022-08-23T15:45:12;4.60;;;1.70;;
47009;SDS011;59230;54.164;-3.124;2022-08-23T15:47:48;2.60;;;1.48;;
47009;SDS011;59230;54.164;-3.124;2022-08-23T15:50:16;5.80;;;1.50;;
47009;SDS011;59230;54.164;-3.124;2022-08-23T15:52:43;7.88;;;1.60;;
47009;SDS011;59230;54.164;-3.124;2022-08-23T15:55:08;3.97;;;1.60;;
47009;SDS011;59230;54.164;-3.124;2022-08-23T15:57:38;6.90;;;1.50;;
47009;SDS011;59230;54.164;-3.124;2022-08-23T16:00:07;3.05;;;1.20;;
47009;SDS011;59230;54.164;-3.124;2022-08-23T16:02:34;6.57;;;1.33;;
47009;SDS011;59230;54.164;-3.124;2022-08-23T16:05:00;5.47;;;1.73;;
47009;SDS011;59230;54.164;-3.124;2022-08-23T16:07:26;3.42;;;1.70;;
47009;SDS011;59230;54.164;-3.124;2022-08-23T16:09:51;5.35;;;2.30;;
47009;SDS011;59230;54.164;-3.124;2022-08-23T16:12:17;3.53;;;1.60;;
47009;SDS011;59230;54.164;-3.124;2022-08-23T16:14:42;3.15;;;1.63;;
47009;SDS011;59230;54.164;-3.124;2022-08-23T16:17:08;3.08;;;1.77;;
47009;SDS011;59230;54.164;-3.124;2022-08-23T16:19:33;7.43;;;2.42;;
47009;SDS011;59230;54.164;-3.124;2022-08-23T16:21:59;5.00;;;1.65;;